Latest Weather Observations for Sydney Airport

IDN60801

Issued at 7:23 am EDT Monday 6 February 2023 (issued every 10 minutes, with the page automatically refreshed every 10 minutes)

About weather observations | Map of weather stations | Latest weather observations for NSW | Other Formats
Station Details ID: 066037 Name: SYDNEY AIRPORT AMO Lat: -33.95 Lon: 151.17 Height: 6.0 m
Data from the previous 72 hours. | See also: Recent months at Sydney Airport
Date/Time
EDT
Temp
°C
App
Temp
°C
Dew
Point
°C
Rel
Hum
%
Delta-T
°C
Wind Press
QNH
hPa
Press
MSL
hPa
Rain since
9am
mm
Dir  Spd
km/h
Gust
km/h
Spd
kts
Gust
kts
06/07:00am 22.7 22.9 17.6 73 3.2 NNE 13 17 7 9 1017.5 1017.5 0.0
06/06:30am 22.4 22.7 17.1 72 3.3 NE 11 13 6 7 1017.3 1017.3 0.0
06/06:00am 22.7 22.7 17.2 71 3.4 NNE 13 19 7 10 1016.8 1016.8 0.0
06/05:30am 22.6 22.9 16.9 70 3.5 NE 11 13 6 7 1016.6 1016.6 0.0
06/05:00am 22.7 22.2 16.9 70 3.5 NE 15 20 8 11 1016.4 1016.4 0.0
06/04:30am 22.5 21.5 16.5 69 3.7 NE 17 24 9 13 1016.3 1016.3 0.0
06/04:00am 22.5 21.6 16.8 70 3.5 ENE 17 22 9 12 1016.7 1016.7 0.0
06/03:30am 22.4 21.4 16.7 70 3.5 ENE 17 20 9 11 1016.9 1016.9 0.0
06/03:00am 22.4 20.4 16.4 69 3.6 E 22 26 12 14 1017.1 1017.1 0.0
06/02:30am 22.4 20.9 16.4 69 3.6 ENE 19 22 10 12 1017.3 1017.3 0.0
06/02:00am 22.4 20.9 16.2 68 3.7 E 19 24 10 13 1017.4 1017.4 0.0
06/01:30am 22.3 20.7 16.1 68 3.7 E 19 20 10 11 1017.5 1017.5 0.0
06/01:00am 22.2 20.6 16.0 68 3.7 E 19 24 10 13 1017.7 1017.7 0.0
06/12:30am 22.5 20.7 16.1 67 3.9 E 20 28 11 15 1017.9 1017.9 0.0
06/12:00am 22.6 20.4 15.9 66 4.0 E 22 28 12 15 1017.9 1017.9 0.0
 
Date/Time
EDT
Temp
°C
App
Temp
°C
Dew
Point
°C
Rel
Hum
%
Delta-T
°C
Wind Press
QNH
hPa
Press
MSL
hPa
Rain since
9am
mm
Dir  Spd
km/h
Gust
km/h
Spd
kts
Gust
kts
05/11:30pm 22.6 20.8 15.9 66 4.0 E 20 26 11 14 1017.9 1017.9 0.0
05/11:00pm 22.5 20.2 15.8 66 4.0 ENE 22 30 12 16 1017.7 1017.7 0.0
05/10:30pm 22.9 21.1 16.0 65 4.2 ENE 20 28 11 15 1017.8 1017.8 0.0
05/10:00pm 22.9 21.1 16.0 65 4.2 E 20 28 11 15 1017.7 1017.7 0.0
05/09:30pm 22.8 21.2 16.1 66 4.1 E 19 26 10 14 1017.4 1017.4 0.0
05/09:00pm 22.9 21.0 15.7 64 4.3 E 20 28 11 15 1016.9 1016.9 0.0
05/08:30pm 23.2 20.6 16.0 64 4.4 E 24 30 13 16 1016.4 1016.4 0.0
05/08:00pm 23.2 20.4 15.3 61 4.7 E 24 32 13 17 1015.9 1015.9 0.0
05/07:30pm 23.7 19.9 14.7 57 5.3 E 28 35 15 19 1015.6 1015.6 0.0
05/07:00pm 24.4 21.0 14.8 55 5.7 E 26 35 14 19 1015.2 1015.2 0.0
05/06:30pm 24.8 21.3 13.4 49 6.7 ENE 24 30 13 16 1015.1 1015.1 0.0
05/06:00pm 25.8 22.0 12.3 43 7.8 E 24 32 13 17 1014.6 1014.6 0.0
05/05:30pm 25.9 21.4 10.1 37 8.8 ENE 24 32 13 17 1014.5 1014.5 0.0
05/05:00pm 26.5 21.6 9.8 35 9.2 ENE 26 32 14 17 1014.4 1014.4 0.0
05/04:30pm 26.5 21.7 8.9 33 9.6 ENE 24 30 13 16 1014.5 1014.5 0.0
05/04:00pm 27.0 22.3 9.4 33 9.7 ENE 24 33 13 18 1014.5 1014.5 0.0
05/03:30pm 26.5 22.2 9.4 34 9.4 E 22 32 12 17 1014.3 1014.3 0.0
05/03:00pm 26.1 21.9 8.1 32 9.7 E 20 24 11 13 1014.4 1014.4 0.0
05/02:30pm 26.4 22.5 9.3 34 9.4 ESE 20 30 11 16 1014.4 1014.4 0.0
05/02:00pm 26.4 22.5 9.3 34 9.4 ESE 20 28 11 15 1014.5 1014.5 0.0
05/01:30pm 25.6 21.3 7.7 32 9.5 ESE 20 28 11 15 1014.8 1014.8 0.0
05/01:00pm 26.0 21.6 7.6 31 9.8 ESE 20 28 11 15 1015.0 1015.0 0.0
05/12:30pm 26.4 22.7 9.3 34 9.4 SE 19 26 10 14 1015.1 1015.1 0.0
05/12:00pm 25.4 21.4 8.4 34 9.1 SE 19 24 10 13 1015.1 1015.1 0.0
05/11:30am 24.7 21.1 6.9 32 9.3 ESE 15 19 8 10 1015.4 1015.4 0.0
05/11:00am 24.2 20.9 6.5 32 9.1 ESE 13 15 7 8 1015.6 1015.6 0.0
05/10:30am 24.0 22.1 7.6 35 8.6 SW 7 11 4 6 1015.5 1015.5 0.0
05/10:00am 24.6 21.9 9.0 37 8.4 WSW 13 19 7 10 1015.4 1015.4 0.0
05/09:30am 23.5 19.8 9.5 41 7.6 W 19 28 10 15 1015.3 1015.3 0.0
05/09:00am 22.3 18.6 9.5 44 6.9 WSW 19 26 10 14 1015.1 1015.1 0.0
05/08:30am 21.7 17.8 9.6 46 6.5 WSW 20 30 11 16 1014.8 1014.8 0.0
05/08:00am 20.2 16.3 9.5 50 5.7 WSW 20 30 11 16 1014.4 1014.4 0.0
05/07:30am 19.0 15.2 8.9 52 5.3 W 19 24 10 13 1013.9 1013.9 0.0
05/07:00am 17.8 14.2 8.4 54 4.8 NW 17 20 9 11 1013.6 1013.6 0.0
05/06:30am 17.6 14.8 8.5 55 4.7 W 13 20 7 11 1013.0 1013.0 0.0
05/06:00am 18.0 14.7 8.0 52 5.1 WNW 15 19 8 10 1012.6 1012.6 0.0
05/05:30am 18.4 14.7 8.1 51 5.3 WSW 17 20 9 11 1012.0 1012.0 0.0
05/05:00am 18.6 14.5 8.0 50 5.4 WSW 19 26 10 14 1011.8 1011.8 0.0
05/04:30am 19.2 14.1 7.6 47 5.9 WSW 24 32 13 17 1011.0 1011.0 0.0
05/04:00am 19.7 15.9 7.4 45 6.3 WSW 17 24 9 13 1011.0 1011.0 0.0
05/03:30am 20.1 15.6 7.1 43 6.6 WSW 20 28 11 15 1011.1 1011.1 0.0
05/03:00am 19.8 16.2 6.9 43 6.5 W 15 19 8 10 1010.9 1010.9 0.0
05/02:30am 20.7 16.8 7.0 41 7.0 WSW 17 22 9 12 1011.1 1011.1 0.0
05/02:00am 20.8 16.2 6.4 39 7.3 W 20 26 11 14 1011.2 1011.2 0.0
05/01:30am 21.5 16.1 6.2 37 7.7 W 24 28 13 15 1011.2 1011.2 0.0
05/01:00am 21.8 15.9 5.7 35 8.1 W 26 33 14 18 1011.1 1011.1 0.0
05/12:30am 22.0 16.0 5.4 34 8.3 WSW 26 32 14 17 1011.0 1011.0 0.0
05/12:00am 22.2 16.6 5.2 33 8.5 WSW 24 28 13 15 1011.0 1011.0 0.0
 
Date/Time
EDT
Temp
°C
App
Temp
°C
Dew
Point
°C
Rel
Hum
%
Delta-T
°C
Wind Press
QNH
hPa
Press
MSL
hPa
Rain since
9am
mm
Dir  Spd
km/h
Gust
km/h
Spd
kts
Gust
kts
04/11:30pm 22.4 16.4 5.4 33 8.5 WSW 26 32 14 17 1010.5 1010.5 0.0
04/11:00pm 22.6 16.3 5.5 33 8.6 WSW 28 37 15 20 1010.5 1010.5 0.0
04/10:30pm 22.8 17.9 5.3 32 8.7 WSW 20 28 11 15 1010.3 1010.3 0.0
04/10:00pm 22.9 18.8 4.4 30 9.1 WSW 15 19 8 10 1010.0 1010.0 0.0
04/09:30pm 23.8 18.7 4.2 28 9.7 WSW 20 28 11 15 1009.5 1009.5 0.0
04/09:00pm 24.1 19.6 4.0 27 9.9 WSW 17 20 9 11 1008.8 1008.8 0.0
04/08:30pm 24.5 18.2 3.8 26 10.2 WSW 26 33 14 18 1008.2 1008.2 0.0
04/08:00pm 25.1 18.0 3.7 25 10.6 WSW 30 37 16 20 1007.5 1007.5 0.0
04/07:30pm 25.8 19.2 4.3 25 10.8 SW 28 33 15 18 1006.8 1006.8 0.0
04/07:00pm 26.5 20.5 3.1 22 11.6 WSW 24 33 13 18 1006.0 1006.0 0.0
04/06:30pm 26.8 19.8 2.0 20 12.0 W 28 41 15 22 1005.4 1005.4 0.0
04/06:00pm 27.8 20.8 2.1 19 12.6 WSW 28 39 15 21 1004.8 1004.8 0.0
04/05:34pm 27.6 19.8 1.9 19 12.5 W 32 50 17 27 1004.6 1004.6 0.0
04/05:30pm 27.6 19.8 1.9 19 12.5 W 32 50 17 27 1004.5 1004.5 0.0
04/05:00pm 27.8 19.6 2.8 20 12.4 WSW 35 48 19 26 1004.2 1004.2 0.0
04/04:30pm 27.9 19.4 0.6 17 13.0 WSW 35 50 19 27 1004.1 1004.1 0.0
04/04:00pm 27.2 19.0 0.1 17 12.7 W 33 50 18 27 1004.2 1004.2 0.0
04/03:51pm 27.8 19.2 0.5 17 12.9 W 35 50 19 27 1004.3 1004.3 0.0
04/03:30pm 27.8 19.9 -1.2 15 13.3 WSW 30 37 16 20 1004.4 1004.4 0.0
04/03:00pm 27.7 20.6 -1.3 15 13.3 W 26 39 14 21 1004.6 1004.6 0.0
04/02:30pm 27.3 20.7 -0.7 16 12.9 WNW 24 44 13 24 1004.7 1004.7 0.0
04/02:00pm 26.7 20.2 0.4 18 12.4 W 24 35 13 19 1005.0 1005.0 0.0
04/01:30pm 25.9 19.1 0.5 19 11.9 W 26 35 14 19 1005.2 1005.2 0.0
04/01:19pm 25.4 18.1 0.1 19 11.7 W 28 46 15 25 1005.2 1005.2 0.0
04/01:00pm 24.5 16.9 0.8 21 11.1 W 30 39 16 21 1005.3 1005.3 0.0
04/12:37pm 24.8 17.4 1.7 22 10.9 WSW 30 48 16 26 1005.4 1005.4 0.0
04/12:30pm 24.7 17.3 3.9 26 10.3 W 32 48 17 26 1005.6 1005.6 0.0
04/12:00pm 22.7 15.7 1.7 25 9.8 WNW 28 39 15 21 1005.8 1005.8 0.0
04/11:30am 23.3 16.7 2.2 25 10.0 WSW 26 35 14 19 1006.0 1006.0 0.0
04/11:00am 23.6 17.5 5.0 30 9.3 WSW 26 35 14 19 1006.2 1006.2 0.0
04/10:30am 21.5 13.1 1.7 27 9.2 WSW 35 48 19 26 1006.0 1006.0 0.0
04/10:00am 20.7 14.4 3.9 33 8.1 WSW 26 39 14 21 1005.8 1005.8 0.0
04/09:30am 20.7 14.0 3.4 32 8.2 WSW 28 41 15 22 1005.7 1005.7 0.0
04/09:00am 20.0 12.1 4.1 35 7.6 W 35 44 19 24 1005.6 1005.6 0.0
04/08:50am 19.5 12.0 3.6 35 7.5 W 32 50 17 27 1005.4 1005.4 0.0
04/08:30am 19.5 12.3 5.2 39 7.0 W 32 44 17 24 1005.0 1005.0 0.0
04/08:00am 19.0 14.0 4.4 38 7.0 W 20 30 11 16 1004.6 1004.6 0.0
04/07:30am 18.6 14.0 5.5 42 6.4 W 19 26 10 14 1004.3 1004.3 0.0
04/07:00am 17.9 13.3 5.5 44 6.0 W 19 26 10 14 1003.9 1003.9 0.0
04/06:30am 17.4 13.0 4.7 43 6.0 W 17 22 9 12 1003.4 1003.4 0.0
04/06:00am 18.0 13.0 4.6 41 6.4 WSW 20 26 11 14 1002.9 1002.9 0.0
04/05:30am 18.4 13.6 4.6 40 6.6 W 19 28 10 15 1002.4 1002.4 0.0
04/05:00am 19.0 13.9 4.0 37 7.2 W 20 28 11 15 1001.7 1001.7 0.0
04/04:30am 19.3 15.2 4.6 38 7.1 W 15 26 8 14 1001.1 1001.1 0.0
04/04:00am 19.7 14.5 3.4 34 7.7 WSW 20 26 11 14 1000.7 1000.7 0.0
04/03:30am 20.8 15.6 2.6 30 8.5 W 19 24 10 13 1000.6 1000.6 0.0
04/03:00am 20.5 13.8 3.7 33 8.1 W 28 35 15 19 1000.6 1000.6 0.0
04/02:30am 20.7 15.3 4.3 34 7.9 W 22 28 12 15 1000.4 1000.4 0.0
04/02:00am 21.3 15.0 4.0 32 8.4 W 26 32 14 17 1000.3 1000.3 0.0
04/01:30am 21.5 16.0 5.8 36 7.9 W 24 30 13 16 1000.4 1000.4 0.0
04/01:00am 21.8 19.3 8.3 42 7.1 NW 11 17 6 9 1000.5 1000.5 0.0
04/12:30am 22.2 19.0 11.3 50 6.1 WNW 19 24 10 13 1000.7 1000.7 0.0
04/12:00am 24.0 22.2 11.0 44 7.3 N 11 15 6 8 1000.7 1000.7 0.0
 
Date/Time
EDT
Temp
°C
App
Temp
°C
Dew
Point
°C
Rel
Hum
%
Delta-T
°C
Wind Press
QNH
hPa
Press
MSL
hPa
Rain since
9am
mm
Dir  Spd
km/h
Gust
km/h
Spd
kts
Gust
kts
03/11:30pm 23.3 22.3 11.0 46 6.8 NE 7 13 4 7 1000.6 1000.6 0.0
03/11:00pm 23.1 21.1 10.2 44 7.1 ENE 11 15 6 8 1000.4 1000.4 0.0
03/10:30pm 23.2 21.3 9.2 41 7.5 ESE 9 11 5 6 1000.4 1000.4 0.0
03/10:00pm 23.0 21.0 10.1 44 7.1 E 11 13 6 7 1000.3 1000.3 0.0
03/09:30pm 22.5 20.2 10.6 47 6.5 E 13 15 7 8 999.9 999.9 0.0
03/09:00pm 22.5 19.9 10.6 47 6.6 ESE 15 17 8 9 999.5 999.5 0.0
03/08:30pm 22.7 20.0 10.5 46 6.7 ESE 15 19 8 10 998.8 998.8 0.0
03/08:00pm 22.8 19.6 9.9 44 7.1 E 17 24 9 13 998.2 998.2 0.0
03/07:30pm 23.4 19.9 10.1 43 7.3 ESE 19 28 10 15 997.6 997.6 0.0
03/07:00pm 23.8 20.5 10.8 44 7.3 ESE 19 28 10 15 997.1 997.1 0.0
03/06:30pm 23.6 19.9 10.3 43 7.3 ESE 20 30 11 16 996.5 996.5 0.0
03/06:00pm 24.8 20.7 11.4 43 7.6 ESE 24 32 13 17 996.0 996.0 0.0
03/05:30pm 24.5 19.8 10.8 42 7.6 SE 26 33 14 18 995.7 995.7 0.0
03/05:00pm 24.2 19.6 11.2 44 7.3 ESE 26 33 14 18 995.5 995.5 0.0
03/04:30pm 24.5 20.5 13.1 49 6.6 SE 26 33 14 18 995.2 995.2 0.0
03/04:00pm 25.6 21.2 12.8 45 7.5 SE 28 37 15 20 995.0 995.0 0.0
03/03:30pm 25.9 20.9 10.9 39 8.4 ESE 28 33 15 18 994.8 994.8 0.0
03/03:00pm 26.0 20.4 11.4 40 8.3 ESE 32 39 17 21 994.5 994.5 0.0
03/02:40pm 29.3 24.8 8.4 27 11.5 WSW 22 48 12 26 994.5 994.5 0.0
03/02:30pm 28.9 24.6 8.0 27 11.4 WNW 20 32 11 17 994.5 994.5 0.0
03/02:00pm 29.5 24.6 8.5 27 11.6 WNW 24 33 13 18 994.6 994.6 0.0
03/01:30pm 28.0 23.8 7.3 27 11.1 WNW 19 28 10 15 994.8 994.8 0.0
03/01:00pm 28.1 23.8 7.9 28 11.0 NW 20 32 11 17 995.1 995.1 0.0
03/12:30pm 26.7 22.3 6.7 28 10.5 W 19 28 10 15 995.3 995.3 0.0
03/12:00pm 26.6 22.8 7.6 30 10.2 W 17 32 9 17 995.5 995.5 0.0
03/11:30am 26.7 22.6 7.7 30 10.2 W 19 30 10 16 995.7 995.7 0.0
03/11:00am 25.8 20.3 7.4 31 9.8 WNW 26 39 14 21 995.7 995.7 0.0
03/10:30am 25.0 19.4 7.2 32 9.3 NNW 26 33 14 18 995.9 995.9 0.0
03/10:00am 24.6 22.3 9.0 37 8.5 WSW 11 19 6 10 995.7 995.7 0.0
03/09:30am 23.7 20.7 10.7 44 7.2 SSW 17 26 9 14 995.7 995.7 0.0
03/09:00am 23.7 19.3 8.9 39 8.0 WSW 22 30 12 16 995.6 995.6 0.0
03/08:30am 24.2 21.1 7.4 34 8.8 W 13 17 7 9 995.2 995.2 0.0
03/08:00am 22.8 18.4 7.4 37 8.1 WNW 20 26 11 14 994.8 994.8 0.0
03/07:30am 23.3 19.1 8.2 38 8.0 WNW 20 26 11 14 994.4 994.4 0.0

Other formats

Comma delimited format used in spreadsheet applications
http://www.bom.gov.au/fwo/IDN60801/IDN60801.94767.axf

JavaScript Object Notation format (JSON) in row-major order
http://www.bom.gov.au/fwo/IDN60801/IDN60801.94767.json

Data quality

Most of these data are generated automatically and are frequently updated. Quality checks on data are not normally performed. It is possible for incorrect values to appear. Refer to information at About Latest Weather Observations and please check the disclaimer before using these data.